createdAt,value
2022-09-15T00:00:30.554Z,130.90
2022-09-15T00:01:30.586Z,126.70
2022-09-15T00:02:30.631Z,136.70
2022-09-15T00:03:30.502Z,146.40
2022-09-15T00:04:30.503Z,157.30
2022-09-15T00:05:30.484Z,157.00
2022-09-15T00:06:30.485Z,157.90
2022-09-15T00:07:30.474Z,165.50
2022-09-15T00:08:30.447Z,167.70
2022-09-15T00:09:30.431Z,164.80
2022-09-15T00:10:30.413Z,170.20
2022-09-15T00:11:30.398Z,175.40
2022-09-15T00:12:30.422Z,159.80
2022-09-15T00:13:30.379Z,145.30
2022-09-15T00:14:30.368Z,145.40
2022-09-15T00:15:30.346Z,118.30
2022-09-15T00:16:30.379Z,116.00
2022-09-15T00:17:30.344Z,121.80
2022-09-15T00:18:30.312Z,127.90
2022-09-15T00:19:30.288Z,134.80
2022-09-15T00:20:30.284Z,172.50
2022-09-15T00:21:30.271Z,149.80
2022-09-15T00:22:30.290Z,151.90
2022-09-15T00:23:30.239Z,152.00
2022-09-15T00:24:30.226Z,168.10
2022-09-15T00:25:30.206Z,169.10
2022-09-15T00:26:30.198Z,186.20
2022-09-15T00:27:30.206Z,184.00
2022-09-15T00:28:30.174Z,182.80
2022-09-15T00:29:30.158Z,161.40
2022-09-15T00:30:30.187Z,154.40
2022-09-15T00:31:30.127Z,187.70
2022-09-15T00:32:30.146Z,189.00
2022-09-15T00:33:30.097Z,204.50
2022-09-15T00:34:30.087Z,205.50
2022-09-15T00:35:30.079Z,197.70
2022-09-15T00:36:30.067Z,210.00
2022-09-15T00:37:30.078Z,207.80
2022-09-15T00:38:30.038Z,225.30
2022-09-15T00:39:30.023Z,226.30
2022-09-15T00:40:30.141Z,222.30
2022-09-15T00:41:29.989Z,215.50
2022-09-15T00:42:30.009Z,228.40
2022-09-15T00:43:29.968Z,217.40
2022-09-15T00:44:29.957Z,211.00
2022-09-15T00:45:29.991Z,209.00
2022-09-15T00:46:29.930Z,206.10
2022-09-15T00:47:29.930Z,190.40
2022-09-15T00:48:30.040Z,210.80
2022-09-15T00:49:29.888Z,233.10
2022-09-15T00:50:29.878Z,198.30
2022-09-15T00:51:29.858Z,207.10
2022-09-15T00:52:29.871Z,213.10
2022-09-15T00:53:29.849Z,209.10
2022-09-15T00:54:29.821Z,225.50
2022-09-15T00:55:29.811Z,233.20
2022-09-15T00:56:29.801Z,227.90
2022-09-15T00:57:29.812Z,229.40
2022-09-15T00:58:29.761Z,230.00
2022-09-15T00:59:29.741Z,239.00
2022-09-15T01:00:29.742Z,232.70
2022-09-15T01:01:29.808Z,236.40
2022-09-15T01:02:29.817Z,226.30
2022-09-15T01:03:29.704Z,224.80
2022-09-15T01:04:29.684Z,251.40
2022-09-15T01:05:29.662Z,247.40
2022-09-15T01:06:29.653Z,235.80
2022-09-15T01:07:29.666Z,245.50
2022-09-15T01:08:29.661Z,247.60
2022-09-15T01:09:29.615Z,251.10
2022-09-15T01:10:29.605Z,257.60
2022-09-15T01:11:29.583Z,315.00
2022-09-15T01:12:29.605Z,285.80
2022-09-15T01:13:29.563Z,333.10
2022-09-15T01:14:29.551Z,277.60
2022-09-15T01:15:29.532Z,266.00
2022-09-15T01:16:29.595Z,277.30
2022-09-15T01:17:29.525Z,260.90
2022-09-15T01:18:29.495Z,272.20
2022-09-15T01:19:29.476Z,245.80
2022-09-15T01:20:29.506Z,261.20
2022-09-15T01:21:29.445Z,268.50
2022-09-15T01:22:29.463Z,265.90
2022-09-15T01:23:29.423Z,278.10
2022-09-15T01:24:29.416Z,253.00
2022-09-15T01:25:29.397Z,251.60
2022-09-15T01:26:29.384Z,249.60
2022-09-15T01:27:42.278Z,253.30
2022-09-15T01:28:30.369Z,238.90
2022-09-15T01:29:29.371Z,258.90
2022-09-15T01:30:29.341Z,253.40
2022-09-15T01:31:29.345Z,244.30
2022-09-15T01:32:29.327Z,252.40
2022-09-15T01:33:29.276Z,265.40
2022-09-15T01:34:29.277Z,265.50
2022-09-15T01:35:29.258Z,262.50
2022-09-15T01:36:29.254Z,259.30
2022-09-15T01:37:29.258Z,260.90
2022-09-15T01:38:29.218Z,249.20
2022-09-15T01:39:29.216Z,251.00
2022-09-15T01:40:29.246Z,245.20
2022-09-15T01:41:29.178Z,264.70
2022-09-15T01:42:29.188Z,275.00
2022-09-15T01:43:29.159Z,276.80
2022-09-15T01:44:29.139Z,266.90
2022-09-15T01:45:29.262Z,261.30
2022-09-15T01:46:29.148Z,246.40
2022-09-15T01:47:29.099Z,257.70
2022-09-15T01:48:29.081Z,255.10
2022-09-15T01:49:29.076Z,271.90
2022-09-15T01:50:29.056Z,265.30
2022-09-15T01:51:29.060Z,247.50
2022-09-15T01:52:29.051Z,248.20
2022-09-15T01:53:29.020Z,267.60
2022-09-15T01:54:29.000Z,272.80
2022-09-15T01:55:29.005Z,269.60
2022-09-15T01:56:28.980Z,292.80
2022-09-15T01:57:28.990Z,277.30
2022-09-15T01:58:28.940Z,272.20
2022-09-15T01:59:28.972Z,283.30
2022-09-15T02:00:28.931Z,248.50
2022-09-15T02:01:28.932Z,259.30
2022-09-15T02:02:28.988Z,267.80
2022-09-15T02:03:28.880Z,263.70
2022-09-15T02:04:28.861Z,250.10
2022-09-15T02:05:28.852Z,245.00
2022-09-15T02:06:28.863Z,262.00
2022-09-15T02:07:28.856Z,317.00
2022-09-15T02:08:28.812Z,295.60
2022-09-15T02:09:28.801Z,308.00
2022-09-15T02:10:28.781Z,266.00
2022-09-15T02:11:28.764Z,256.70
2022-09-15T02:12:28.784Z,264.70
2022-09-15T02:13:28.741Z,258.20
2022-09-15T02:14:28.723Z,251.90
2022-09-15T02:15:28.725Z,263.20
2022-09-15T02:16:28.785Z,254.60
2022-09-15T02:17:28.714Z,282.70
2022-09-15T02:18:28.674Z,284.90
2022-09-15T02:19:28.662Z,269.00
2022-09-15T02:20:28.653Z,310.70
2022-09-15T02:21:28.634Z,299.20
2022-09-15T02:22:28.634Z,274.30
2022-09-15T02:23:28.606Z,303.90
2022-09-15T02:24:28.586Z,269.20
2022-09-15T02:25:28.575Z,285.90
2022-09-15T02:26:28.557Z,276.30
2022-09-15T02:27:28.574Z,284.10
2022-09-15T02:28:28.533Z,293.60
2022-09-15T02:29:28.526Z,286.20
2022-09-15T02:30:28.516Z,289.30
2022-09-15T02:31:28.596Z,277.40
2022-09-15T02:32:28.486Z,268.70
2022-09-15T02:33:28.465Z,266.10
2022-09-15T02:34:28.445Z,274.80
2022-09-15T02:35:28.435Z,284.40
2022-09-15T02:36:28.416Z,294.00
2022-09-15T02:37:28.442Z,286.00
2022-09-15T02:38:28.396Z,268.90
2022-09-15T02:39:28.387Z,273.20
2022-09-15T02:40:28.452Z,282.00
2022-09-15T02:41:28.357Z,318.20
2022-09-15T02:42:28.378Z,282.30
2022-09-15T02:43:28.331Z,269.80
2022-09-15T02:44:28.314Z,270.40
2022-09-15T02:45:28.350Z,269.80
2022-09-15T02:46:28.286Z,268.90
2022-09-15T02:47:28.343Z,278.60
2022-09-15T02:48:28.257Z,259.90
2022-09-15T02:49:28.256Z,293.30
2022-09-15T02:50:28.228Z,316.60
2022-09-15T02:51:28.217Z,299.40
2022-09-15T02:52:28.260Z,293.40
2022-09-15T02:53:28.199Z,320.70
2022-09-15T02:54:28.182Z,281.90
2022-09-15T02:55:28.180Z,280.10
2022-09-15T02:56:28.149Z,331.00
2022-09-15T02:57:28.167Z,287.80
2022-09-15T02:58:28.142Z,271.70
2022-09-15T02:59:28.110Z,256.90
2022-09-15T03:00:28.089Z,259.60
2022-09-15T03:01:28.134Z,249.00
2022-09-15T03:02:28.156Z,254.10
2022-09-15T03:03:28.061Z,258.50
2022-09-15T03:04:28.040Z,265.90
2022-09-15T03:05:28.030Z,253.70
2022-09-15T03:06:28.029Z,238.10
2022-09-15T03:07:28.032Z,250.40
2022-09-15T03:08:27.980Z,273.30
2022-09-15T03:09:27.980Z,224.20
2022-09-15T03:10:27.961Z,252.30
2022-09-15T03:11:27.952Z,244.00
2022-09-15T03:12:27.951Z,215.20
2022-09-15T03:13:27.928Z,229.20
2022-09-15T03:14:27.911Z,224.50
2022-09-15T03:15:27.891Z,251.60
2022-09-15T03:16:27.952Z,281.60
2022-09-15T03:17:27.891Z,315.80
2022-09-15T03:18:27.850Z,197.10
2022-09-15T03:19:27.842Z,199.80
2022-09-15T03:20:27.822Z,183.40
2022-09-15T03:21:27.813Z,285.50
2022-09-15T03:22:27.826Z,233.10
2022-09-15T03:23:27.792Z,220.50
2022-09-15T03:24:27.786Z,214.00
2022-09-15T03:25:27.762Z,213.70
2022-09-15T03:26:27.750Z,211.00
2022-09-15T03:27:27.753Z,191.10
2022-09-15T03:28:27.738Z,190.40
2022-09-15T03:29:27.757Z,191.90
2022-09-15T03:30:27.685Z,189.40
2022-09-15T03:31:27.727Z,197.70
2022-09-15T03:32:27.697Z,192.10
2022-09-15T03:33:27.650Z,191.80
2022-09-15T03:34:27.635Z,189.30
2022-09-15T03:35:27.624Z,202.00
2022-09-15T03:36:27.606Z,193.40
2022-09-15T03:37:27.635Z,186.40
2022-09-15T03:38:27.576Z,178.90
2022-09-15T03:39:27.575Z,178.90
2022-09-15T03:40:27.648Z,192.10
2022-09-15T03:41:27.544Z,173.50
2022-09-15T03:42:27.558Z,175.90
2022-09-15T03:43:27.518Z,169.00
2022-09-15T03:44:27.496Z,172.10
2022-09-15T03:45:27.554Z,180.90
2022-09-15T03:46:27.467Z,186.90
2022-09-15T03:47:27.485Z,179.70
2022-09-15T03:48:27.436Z,207.70
2022-09-15T03:49:27.447Z,220.30
2022-09-15T03:50:27.426Z,200.20
2022-09-15T03:51:27.406Z,204.50
2022-09-15T03:52:27.416Z,228.60
2022-09-15T03:53:27.377Z,177.50
2022-09-15T03:54:27.368Z,209.10
2022-09-15T03:55:27.358Z,170.20
2022-09-15T03:56:27.349Z,181.30
2022-09-15T03:57:27.348Z,183.20
2022-09-15T03:58:30.660Z,177.40
2022-09-15T03:59:27.300Z,163.90
2022-09-15T04:00:27.328Z,170.00
2022-09-15T04:01:27.282Z,157.60
2022-09-15T04:02:27.394Z,170.20
2022-09-15T04:03:27.247Z,170.00
2022-09-15T04:04:27.257Z,170.60
2022-09-15T04:05:27.222Z,168.00
2022-09-15T04:06:27.200Z,170.60
2022-09-15T04:07:27.220Z,170.80
2022-09-15T04:08:27.172Z,164.40
2022-09-15T04:09:27.180Z,168.60
2022-09-15T04:10:27.183Z,182.60
2022-09-15T04:11:27.141Z,162.10
2022-09-15T04:12:27.142Z,173.90
2022-09-15T04:13:28.783Z,179.80
2022-09-15T04:14:27.091Z,175.80
2022-09-15T04:15:27.081Z,178.50
2022-09-15T04:16:27.164Z,168.00
2022-09-15T04:17:27.087Z,169.70
2022-09-15T04:18:27.031Z,163.40
2022-09-15T04:19:27.032Z,169.30
2022-09-15T04:20:27.013Z,169.90
2022-09-15T04:21:27.002Z,173.60
2022-09-15T04:22:27.001Z,170.80
2022-09-15T04:23:26.990Z,157.20
2022-09-15T04:24:26.951Z,149.50
2022-09-15T04:25:26.942Z,168.00
2022-09-15T04:26:26.993Z,157.20
2022-09-15T04:27:26.945Z,153.80
2022-09-15T04:28:26.904Z,184.10
2022-09-15T04:29:26.894Z,161.60
2022-09-15T04:30:26.874Z,168.40
2022-09-15T04:31:26.906Z,176.60
2022-09-15T04:32:26.870Z,192.00
2022-09-15T04:33:26.843Z,193.30
2022-09-15T04:34:26.822Z,166.20
2022-09-15T04:35:26.805Z,152.90
2022-09-15T04:36:26.794Z,145.70
2022-09-15T04:37:26.806Z,146.30
2022-09-15T04:38:26.768Z,152.10
2022-09-15T04:39:26.755Z,163.40
2022-09-15T04:40:26.795Z,152.70
2022-09-15T04:41:26.743Z,142.70
2022-09-15T04:42:26.734Z,148.20
2022-09-15T04:43:26.703Z,150.10
2022-09-15T04:44:26.697Z,150.80
2022-09-15T04:45:26.676Z,147.60
2022-09-15T04:46:26.712Z,150.00
2022-09-15T04:47:26.704Z,144.70
2022-09-15T04:48:26.635Z,157.10
2022-09-15T04:49:26.616Z,140.50
2022-09-15T04:50:26.609Z,155.20
2022-09-15T04:51:26.588Z,143.90
2022-09-15T04:52:26.604Z,145.20
2022-09-15T04:53:26.566Z,147.20
2022-09-15T04:54:26.546Z,157.20
2022-09-15T04:55:26.538Z,147.40
2022-09-15T04:56:26.520Z,145.40
2022-09-15T04:57:26.546Z,152.20
2022-09-15T04:58:26.560Z,165.00
2022-09-15T04:59:26.490Z,158.80
2022-09-15T05:00:26.466Z,170.10
2022-09-15T05:01:26.502Z,161.20
2022-09-15T05:02:26.511Z,165.60
2022-09-15T05:03:26.428Z,149.20
2022-09-15T05:04:26.416Z,141.70
2022-09-15T05:05:26.409Z,155.30
2022-09-15T05:06:26.398Z,160.70
2022-09-15T05:07:26.398Z,149.20
2022-09-15T05:08:26.398Z,160.40
2022-09-15T05:09:26.446Z,164.90
2022-09-15T05:10:26.329Z,158.30
2022-09-15T05:11:26.340Z,155.70
2022-09-15T05:12:26.380Z,145.10
2022-09-15T05:13:26.307Z,140.50
2022-09-15T05:14:26.280Z,150.70
2022-09-15T05:15:26.270Z,148.30
2022-09-15T05:16:26.334Z,144.70
2022-09-15T05:17:26.921Z,147.90
2022-09-15T05:18:26.279Z,149.20
2022-09-15T05:19:26.212Z,162.30
2022-09-15T05:20:26.191Z,143.70
2022-09-15T05:21:26.181Z,142.10
2022-09-15T05:22:26.190Z,147.90
2022-09-15T05:23:26.160Z,149.70
2022-09-15T05:24:26.144Z,136.30
2022-09-15T05:25:26.142Z,135.10
2022-09-15T05:26:26.111Z,139.00
2022-09-15T05:27:26.142Z,138.30
2022-09-15T05:28:26.090Z,144.20
2022-09-15T05:29:26.224Z,119.30
2022-09-15T05:30:38.659Z,122.20
2022-09-15T05:31:27.218Z,130.20
2022-09-15T05:32:26.054Z,137.70
2022-09-15T05:33:26.033Z,122.40
2022-09-15T05:34:26.004Z,121.50
2022-09-15T05:35:25.995Z,154.50
2022-09-15T05:36:25.979Z,142.20
2022-09-15T05:37:25.993Z,143.30
2022-09-15T05:38:25.947Z,119.50
2022-09-15T05:39:25.953Z,145.80
2022-09-15T05:40:25.938Z,154.80
2022-09-15T05:41:25.913Z,172.30
2022-09-15T05:42:25.935Z,146.80
2022-09-15T05:43:25.885Z,151.00
2022-09-15T05:44:25.870Z,153.70
2022-09-15T05:45:25.855Z,146.40
2022-09-15T05:46:25.875Z,133.30
2022-09-15T05:47:25.877Z,139.70
2022-09-15T05:48:25.815Z,129.70
2022-09-15T05:49:25.802Z,141.90
2022-09-15T05:50:25.797Z,123.40
2022-09-15T05:51:25.775Z,136.20
2022-09-15T05:52:25.783Z,125.90
2022-09-15T05:53:25.749Z,121.30
2022-09-15T05:54:25.729Z,110.40
2022-09-15T05:55:25.728Z,118.80
2022-09-15T05:56:25.696Z,121.70
2022-09-15T05:57:25.716Z,112.70
2022-09-15T05:58:25.677Z,110.30
2022-09-15T05:59:25.667Z,110.30
2022-09-15T06:00:25.658Z,117.60
2022-09-15T06:01:25.722Z,116.20
2022-09-15T06:02:25.678Z,114.30
2022-09-15T06:03:30.667Z,111.70
2022-09-15T06:04:26.607Z,103.80
2022-09-15T06:05:25.578Z,105.70
2022-09-15T06:06:25.570Z,104.80
2022-09-15T06:07:25.578Z,107.00
2022-09-15T06:08:25.548Z,105.80
2022-09-15T06:09:25.528Z,111.80
2022-09-15T06:10:25.519Z,124.80
2022-09-15T06:11:25.499Z,109.90
2022-09-15T06:12:25.528Z,103.30
2022-09-15T06:13:25.470Z,104.40
2022-09-15T06:14:25.467Z,96.20
2022-09-15T06:15:25.440Z,101.90
2022-09-15T06:16:25.488Z,94.90
2022-09-15T06:17:25.440Z,91.00
2022-09-15T06:18:25.418Z,75.20
2022-09-15T06:19:25.391Z,74.60
2022-09-15T06:20:25.414Z,79.50
2022-09-15T06:21:25.361Z,68.10
2022-09-15T06:22:25.382Z,75.90
2022-09-15T06:23:25.331Z,74.60
2022-09-15T06:24:25.331Z,71.60
2022-09-15T06:25:25.310Z,75.20
2022-09-15T06:26:25.300Z,73.10
2022-09-15T06:27:25.302Z,75.50
2022-09-15T06:28:25.272Z,79.90
2022-09-15T06:29:25.252Z,73.40
2022-09-15T06:30:25.259Z,73.70
2022-09-15T06:31:25.271Z,76.30
2022-09-15T06:32:25.253Z,69.60
2022-09-15T06:33:25.203Z,70.50
2022-09-15T06:34:25.190Z,80.40
2022-09-15T06:35:25.171Z,74.50
2022-09-15T06:36:25.163Z,76.10
2022-09-15T06:37:25.164Z,74.20
2022-09-15T06:38:25.135Z,76.10
2022-09-15T06:39:25.115Z,73.60
2022-09-15T06:40:25.227Z,75.50
2022-09-15T06:41:25.119Z,78.80
2022-09-15T06:42:25.095Z,78.60
2022-09-15T06:43:25.065Z,74.20
2022-09-15T06:44:25.055Z,70.40
2022-09-15T06:45:25.039Z,69.30
2022-09-15T06:46:25.187Z,67.20
2022-09-15T06:47:25.013Z,64.50
2022-09-15T06:48:25.339Z,67.10
2022-09-15T06:49:24.992Z,56.20
2022-09-15T06:50:25.033Z,58.80
2022-09-15T06:51:24.991Z,60.90
2022-09-15T06:52:24.947Z,58.80
2022-09-15T06:53:24.926Z,64.60
2022-09-15T06:54:24.920Z,61.40
2022-09-15T06:55:24.897Z,62.80
2022-09-15T06:56:24.917Z,56.50
2022-09-15T06:57:24.867Z,55.90
2022-09-15T06:58:24.867Z,50.70
2022-09-15T06:59:24.881Z,53.90
2022-09-15T07:00:24.926Z,57.50
2022-09-15T07:01:24.847Z,55.00
2022-09-15T07:02:24.957Z,54.10
2022-09-15T07:03:24.903Z,52.60
2022-09-15T07:04:24.778Z,55.50
2022-09-15T07:05:24.759Z,54.70
2022-09-15T07:06:24.799Z,52.70
2022-09-15T07:07:24.753Z,54.80
2022-09-15T07:08:24.733Z,52.00
2022-09-15T07:09:24.709Z,50.70
2022-09-15T07:10:34.219Z,56.50
2022-09-15T07:11:33.273Z,56.80
2022-09-15T07:12:24.673Z,54.80
2022-09-15T07:13:24.673Z,61.50
2022-09-15T07:14:24.645Z,54.70
2022-09-15T07:15:24.641Z,49.70
2022-09-15T07:16:24.702Z,52.50
2022-09-15T07:17:24.602Z,49.50
2022-09-15T07:18:24.585Z,48.90
2022-09-15T07:19:24.572Z,53.30
2022-09-15T07:20:24.676Z,49.30
2022-09-15T07:21:24.586Z,52.50
2022-09-15T07:22:24.544Z,49.90
2022-09-15T07:23:24.528Z,51.70
2022-09-15T07:24:24.513Z,52.50
2022-09-15T07:25:24.497Z,60.00
2022-09-15T07:26:24.506Z,58.30
2022-09-15T07:27:24.467Z,47.80
2022-09-15T07:28:24.454Z,43.00
2022-09-15T07:29:24.443Z,45.70
2022-09-15T07:30:24.485Z,53.80
2022-09-15T07:31:24.496Z,49.20
2022-09-15T07:32:24.408Z,53.20
2022-09-15T07:33:24.419Z,52.50
2022-09-15T07:34:24.368Z,48.30
2022-09-15T07:35:24.352Z,54.30
2022-09-15T07:36:24.378Z,47.10
2022-09-15T07:37:24.318Z,47.10
2022-09-15T07:38:24.319Z,46.50
2022-09-15T07:39:24.301Z,44.80
2022-09-15T07:43:13.135Z,40.20
2022-09-15T07:44:13.087Z,38.60
2022-09-15T07:45:13.077Z,41.40
2022-09-15T07:46:13.106Z,37.10
2022-09-15T07:47:13.076Z,35.60
2022-09-15T07:48:13.035Z,40.20
2022-09-15T07:49:13.057Z,35.10
2022-09-15T07:50:13.005Z,36.30
2022-09-15T07:51:12.993Z,37.90
2022-09-15T07:52:13.017Z,37.40
2022-09-15T07:53:12.972Z,37.90
2022-09-15T07:54:12.956Z,38.20
2022-09-15T07:55:12.945Z,36.60
2022-09-15T07:56:12.919Z,33.40
2022-09-15T07:57:12.957Z,34.20
2022-09-15T07:58:12.896Z,35.40
2022-09-15T07:59:12.906Z,36.30
2022-09-15T08:00:12.902Z,38.90
2022-09-15T08:01:22.537Z,39.10
2022-09-15T08:02:12.906Z,39.50
2022-09-15T08:06:08.609Z,36.60
2022-09-15T08:10:04.013Z,31.20
2022-09-15T08:13:11.434Z,33.60
2022-09-15T08:15:50.603Z,29.60
2022-09-15T08:16:58.121Z,29.10
2022-09-15T08:26:32.394Z,26.70
2022-09-15T08:27:32.357Z,29.20
2022-09-15T08:28:32.363Z,23.10
2022-09-15T08:29:32.335Z,27.90
2022-09-15T08:30:32.320Z,24.40
2022-09-15T08:31:32.435Z,30.80
2022-09-15T08:32:32.289Z,28.30
2022-09-15T08:33:32.275Z,26.80
2022-09-15T08:34:32.256Z,21.80
2022-09-15T08:35:32.246Z,29.20
2022-09-15T08:36:32.257Z,19.40
2022-09-15T08:37:32.216Z,21.90
2022-09-15T08:38:32.197Z,21.20
2022-09-15T08:39:32.212Z,21.80
2022-09-15T08:40:32.222Z,21.60
2022-09-15T08:41:32.195Z,23.80
2022-09-15T08:42:32.148Z,23.60
2022-09-15T08:43:32.139Z,22.40
2022-09-15T08:44:32.133Z,23.50
2022-09-15T08:45:32.108Z,25.60
2022-09-15T08:46:32.186Z,28.70
2022-09-15T08:47:32.099Z,27.50
2022-09-15T08:48:32.060Z,26.70
2022-09-15T08:53:52.996Z,19.70
2022-09-15T08:54:52.794Z,20.80
2022-09-15T08:55:52.785Z,22.60
2022-09-15T08:57:00.370Z,22.40
